sensor_id;sensor_type;location;lat;lon;timestamp;P1;durP1;ratioP1;P2;durP2;ratioP2
73557;SDS011;61829;53.286;10.434;2022-10-18T00:01:30;7.88;;;4.45;;
73557;SDS011;61829;53.286;10.434;2022-10-18T00:03:56;8.73;;;4.57;;
73557;SDS011;61829;53.286;10.434;2022-10-18T00:06:22;10.40;;;5.25;;
73557;SDS011;61829;53.286;10.434;2022-10-18T00:08:47;7.72;;;4.68;;
73557;SDS011;61829;53.286;10.434;2022-10-18T00:11:13;9.60;;;4.63;;
73557;SDS011;61829;53.286;10.434;2022-10-18T00:13:39;8.48;;;5.22;;
73557;SDS011;61829;53.286;10.434;2022-10-18T00:16:07;10.05;;;4.78;;
73557;SDS011;61829;53.286;10.434;2022-10-18T00:18:36;10.30;;;5.53;;
73557;SDS011;61829;53.286;10.434;2022-10-18T00:21:03;8.90;;;5.32;;
73557;SDS011;61829;53.286;10.434;2022-10-18T00:23:31;7.75;;;5.43;;
73557;SDS011;61829;53.286;10.434;2022-10-18T00:25:59;8.35;;;4.93;;
73557;SDS011;61829;53.286;10.434;2022-10-18T00:28:25;10.35;;;5.60;;
73557;SDS011;61829;53.286;10.434;2022-10-18T00:30:50;9.70;;;5.40;;
73557;SDS011;61829;53.286;10.434;2022-10-18T00:33:16;10.45;;;5.95;;
73557;SDS011;61829;53.286;10.434;2022-10-18T00:35:42;12.20;;;5.90;;
73557;SDS011;61829;53.286;10.434;2022-10-18T00:38:07;11.73;;;5.88;;
73557;SDS011;61829;53.286;10.434;2022-10-18T00:40:33;12.27;;;6.80;;
73557;SDS011;61829;53.286;10.434;2022-10-18T00:42:59;14.73;;;7.55;;
73557;SDS011;61829;53.286;10.434;2022-10-18T00:45:25;12.73;;;5.50;;
73557;SDS011;61829;53.286;10.434;2022-10-18T00:47:52;12.18;;;6.60;;
73557;SDS011;61829;53.286;10.434;2022-10-18T00:50:22;12.60;;;6.82;;
73557;SDS011;61829;53.286;10.434;2022-10-18T00:52:52;12.07;;;6.78;;
73557;SDS011;61829;53.286;10.434;2022-10-18T00:55:23;11.77;;;6.10;;
73557;SDS011;61829;53.286;10.434;2022-10-18T00:57:50;11.65;;;6.75;;
73557;SDS011;61829;53.286;10.434;2022-10-18T01:00:17;10.63;;;5.75;;
73557;SDS011;61829;53.286;10.434;2022-10-18T01:02:43;13.43;;;5.68;;
73557;SDS011;61829;53.286;10.434;2022-10-18T01:05:11;13.57;;;6.20;;
73557;SDS011;61829;53.286;10.434;2022-10-18T01:07:54;13.70;;;6.40;;
73557;SDS011;61829;53.286;10.434;2022-10-18T01:16:00;13.00;;;6.90;;
73557;SDS011;61829;53.286;10.434;2022-10-18T01:18:53;21.27;;;6.90;;
73557;SDS011;61829;53.286;10.434;2022-10-18T01:21:30;10.80;;;6.57;;
73557;SDS011;61829;53.286;10.434;2022-10-18T01:29:46;16.13;;;7.72;;
73557;SDS011;61829;53.286;10.434;2022-10-18T01:32:48;13.85;;;6.72;;
73557;SDS011;61829;53.286;10.434;2022-10-18T01:35:22;12.27;;;6.80;;
73557;SDS011;61829;53.286;10.434;2022-10-18T01:43:46;15.60;;;7.57;;
73557;SDS011;61829;53.286;10.434;2022-10-18T01:46:16;13.88;;;8.18;;
73557;SDS011;61829;53.286;10.434;2022-10-18T01:48:51;11.25;;;7.30;;
73557;SDS011;61829;53.286;10.434;2022-10-18T01:51:22;14.27;;;8.45;;
73557;SDS011;61829;53.286;10.434;2022-10-18T01:53:51;15.13;;;7.65;;
73557;SDS011;61829;53.286;10.434;2022-10-18T01:56:22;16.52;;;8.82;;
73557;SDS011;61829;53.286;10.434;2022-10-18T01:59:31;11.70;;;7.55;;
73557;SDS011;61829;53.286;10.434;2022-10-18T02:02:15;16.35;;;8.43;;
73557;SDS011;61829;53.286;10.434;2022-10-18T02:07:43;17.35;;;8.32;;
73557;SDS011;61829;53.286;10.434;2022-10-18T02:10:27;15.15;;;8.05;;
73557;SDS011;61829;53.286;10.434;2022-10-18T02:12:53;12.15;;;7.07;;
73557;SDS011;61829;53.286;10.434;2022-10-18T02:15:23;12.73;;;7.55;;
73557;SDS011;61829;53.286;10.434;2022-10-18T02:17:54;15.05;;;7.70;;
73557;SDS011;61829;53.286;10.434;2022-10-18T02:20:22;14.57;;;8.18;;
73557;SDS011;61829;53.286;10.434;2022-10-18T02:22:51;11.25;;;7.07;;
73557;SDS011;61829;53.286;10.434;2022-10-18T02:25:20;17.20;;;7.70;;
73557;SDS011;61829;53.286;10.434;2022-10-18T02:27:50;14.38;;;7.70;;
73557;SDS011;61829;53.286;10.434;2022-10-18T02:30:16;14.23;;;7.70;;
73557;SDS011;61829;53.286;10.434;2022-10-18T02:32:47;13.35;;;7.30;;
73557;SDS011;61829;53.286;10.434;2022-10-18T02:35:26;10.50;;;6.22;;
73557;SDS011;61829;53.286;10.434;2022-10-18T02:37:55;13.30;;;7.20;;
73557;SDS011;61829;53.286;10.434;2022-10-18T02:40:23;15.80;;;8.15;;
73557;SDS011;61829;53.286;10.434;2022-10-18T02:42:52;13.43;;;7.75;;
73557;SDS011;61829;53.286;10.434;2022-10-18T02:45:20;11.10;;;6.78;;
73557;SDS011;61829;53.286;10.434;2022-10-18T02:47:47;15.13;;;8.77;;
73557;SDS011;61829;53.286;10.434;2022-10-18T02:50:13;17.75;;;8.63;;
73557;SDS011;61829;53.286;10.434;2022-10-18T02:52:39;16.40;;;8.35;;
73557;SDS011;61829;53.286;10.434;2022-10-18T02:55:05;14.85;;;8.45;;
73557;SDS011;61829;53.286;10.434;2022-10-18T02:57:32;16.35;;;7.93;;
73557;SDS011;61829;53.286;10.434;2022-10-18T02:59:58;13.35;;;7.72;;
73557;SDS011;61829;53.286;10.434;2022-10-18T03:02:24;16.67;;;8.10;;
73557;SDS011;61829;53.286;10.434;2022-10-18T03:04:50;17.20;;;8.63;;
73557;SDS011;61829;53.286;10.434;2022-10-18T03:07:16;10.65;;;6.75;;
73557;SDS011;61829;53.286;10.434;2022-10-18T03:09:42;14.80;;;7.85;;
73557;SDS011;61829;53.286;10.434;2022-10-18T03:12:08;12.18;;;7.65;;
73557;SDS011;61829;53.286;10.434;2022-10-18T03:14:35;14.98;;;7.30;;
73557;SDS011;61829;53.286;10.434;2022-10-18T03:17:00;13.70;;;7.88;;
73557;SDS011;61829;53.286;10.434;2022-10-18T03:19:26;16.13;;;8.27;;
73557;SDS011;61829;53.286;10.434;2022-10-18T03:21:52;12.98;;;7.38;;
73557;SDS011;61829;53.286;10.434;2022-10-18T03:24:24;12.50;;;8.00;;
73557;SDS011;61829;53.286;10.434;2022-10-18T03:26:50;17.58;;;8.60;;
73557;SDS011;61829;53.286;10.434;2022-10-18T03:29:18;15.20;;;8.35;;
73557;SDS011;61829;53.286;10.434;2022-10-18T03:31:43;15.48;;;8.43;;
73557;SDS011;61829;53.286;10.434;2022-10-18T03:34:09;14.07;;;7.78;;
73557;SDS011;61829;53.286;10.434;2022-10-18T03:36:35;18.20;;;8.70;;
73557;SDS011;61829;53.286;10.434;2022-10-18T03:39:04;17.60;;;8.55;;
73557;SDS011;61829;53.286;10.434;2022-10-18T03:41:32;14.05;;;9.43;;
73557;SDS011;61829;53.286;10.434;2022-10-18T03:43:57;15.48;;;9.20;;
73557;SDS011;61829;53.286;10.434;2022-10-18T03:46:23;18.27;;;9.60;;
73557;SDS011;61829;53.286;10.434;2022-10-18T03:48:49;15.65;;;8.80;;
73557;SDS011;61829;53.286;10.434;2022-10-18T03:51:15;16.45;;;7.95;;
73557;SDS011;61829;53.286;10.434;2022-10-18T03:53:41;20.85;;;9.27;;
73557;SDS011;61829;53.286;10.434;2022-10-18T03:56:07;13.90;;;8.73;;
73557;SDS011;61829;53.286;10.434;2022-10-18T03:58:34;14.85;;;9.00;;
73557;SDS011;61829;53.286;10.434;2022-10-18T04:01:00;12.95;;;7.50;;
73557;SDS011;61829;53.286;10.434;2022-10-18T04:03:26;14.95;;;9.52;;
73557;SDS011;61829;53.286;10.434;2022-10-18T04:05:52;19.60;;;9.30;;
73557;SDS011;61829;53.286;10.434;2022-10-18T04:08:19;14.63;;;8.93;;
73557;SDS011;61829;53.286;10.434;2022-10-18T04:10:45;21.15;;;9.43;;
73557;SDS011;61829;53.286;10.434;2022-10-18T04:13:11;14.18;;;8.43;;
73557;SDS011;61829;53.286;10.434;2022-10-18T04:15:37;16.55;;;9.05;;
73557;SDS011;61829;53.286;10.434;2022-10-18T04:18:04;11.70;;;5.63;;
73557;SDS011;61829;53.286;10.434;2022-10-18T04:20:30;15.60;;;8.75;;
73557;SDS011;61829;53.286;10.434;2022-10-18T04:22:55;17.13;;;9.48;;
73557;SDS011;61829;53.286;10.434;2022-10-18T04:25:22;21.10;;;10.68;;
73557;SDS011;61829;53.286;10.434;2022-10-18T04:27:49;27.00;;;11.15;;
73557;SDS011;61829;53.286;10.434;2022-10-18T04:30:15;21.55;;;10.88;;
73557;SDS011;61829;53.286;10.434;2022-10-18T04:32:41;21.98;;;11.80;;
73557;SDS011;61829;53.286;10.434;2022-10-18T04:35:09;23.55;;;10.73;;
73557;SDS011;61829;53.286;10.434;2022-10-18T04:37:35;27.13;;;12.00;;
73557;SDS011;61829;53.286;10.434;2022-10-18T04:40:01;17.55;;;10.20;;
73557;SDS011;61829;53.286;10.434;2022-10-18T04:44:56;18.88;;;10.70;;
73557;SDS011;61829;53.286;10.434;2022-10-18T04:47:22;19.05;;;10.32;;
73557;SDS011;61829;53.286;10.434;2022-10-18T04:49:47;24.40;;;11.35;;
73557;SDS011;61829;53.286;10.434;2022-10-18T04:52:14;22.02;;;11.02;;
73557;SDS011;61829;53.286;10.434;2022-10-18T04:54:40;21.42;;;11.73;;
73557;SDS011;61829;53.286;10.434;2022-10-18T04:57:06;23.75;;;11.88;;
73557;SDS011;61829;53.286;10.434;2022-10-18T04:59:32;20.40;;;9.73;;
73557;SDS011;61829;53.286;10.434;2022-10-18T05:01:58;19.30;;;10.98;;
73557;SDS011;61829;53.286;10.434;2022-10-18T05:04:26;19.75;;;11.05;;
73557;SDS011;61829;53.286;10.434;2022-10-18T05:06:52;19.67;;;11.13;;
73557;SDS011;61829;53.286;10.434;2022-10-18T05:09:17;19.38;;;9.77;;
73557;SDS011;61829;53.286;10.434;2022-10-18T05:11:43;16.00;;;9.18;;
73557;SDS011;61829;53.286;10.434;2022-10-18T05:14:09;15.40;;;8.38;;
73557;SDS011;61829;53.286;10.434;2022-10-18T05:16:35;22.20;;;11.23;;
73557;SDS011;61829;53.286;10.434;2022-10-18T05:19:03;22.25;;;11.90;;
73557;SDS011;61829;53.286;10.434;2022-10-18T05:21:30;17.98;;;9.85;;
73557;SDS011;61829;53.286;10.434;2022-10-18T05:23:56;21.77;;;10.93;;
73557;SDS011;61829;53.286;10.434;2022-10-18T05:26:22;17.65;;;9.45;;
73557;SDS011;61829;53.286;10.434;2022-10-18T05:28:48;17.75;;;10.70;;
73557;SDS011;61829;53.286;10.434;2022-10-18T05:31:15;22.60;;;10.68;;
73557;SDS011;61829;53.286;10.434;2022-10-18T05:33:41;20.80;;;10.93;;
73557;SDS011;61829;53.286;10.434;2022-10-18T05:36:07;19.58;;;11.07;;
73557;SDS011;61829;53.286;10.434;2022-10-18T05:38:36;25.27;;;12.40;;
73557;SDS011;61829;53.286;10.434;2022-10-18T05:41:03;17.95;;;10.25;;
73557;SDS011;61829;53.286;10.434;2022-10-18T05:43:29;23.08;;;11.35;;
73557;SDS011;61829;53.286;10.434;2022-10-18T05:45:55;21.17;;;10.48;;
73557;SDS011;61829;53.286;10.434;2022-10-18T05:48:21;19.33;;;9.70;;
73557;SDS011;61829;53.286;10.434;2022-10-18T05:50:47;21.13;;;10.05;;
73557;SDS011;61829;53.286;10.434;2022-10-18T05:53:13;19.17;;;10.80;;
73557;SDS011;61829;53.286;10.434;2022-10-18T05:55:39;19.38;;;9.57;;
73557;SDS011;61829;53.286;10.434;2022-10-18T05:58:05;15.00;;;9.02;;
73557;SDS011;61829;53.286;10.434;2022-10-18T06:00:31;19.88;;;10.77;;
73557;SDS011;61829;53.286;10.434;2022-10-18T06:02:56;17.85;;;9.93;;
73557;SDS011;61829;53.286;10.434;2022-10-18T06:05:23;21.63;;;10.98;;
73557;SDS011;61829;53.286;10.434;2022-10-18T06:07:48;22.50;;;10.98;;
73557;SDS011;61829;53.286;10.434;2022-10-18T06:10:14;27.00;;;10.10;;
73557;SDS011;61829;53.286;10.434;2022-10-18T06:12:40;23.90;;;10.45;;
73557;SDS011;61829;53.286;10.434;2022-10-18T06:15:06;19.73;;;11.20;;
73557;SDS011;61829;53.286;10.434;2022-10-18T06:17:32;22.08;;;11.75;;
73557;SDS011;61829;53.286;10.434;2022-10-18T06:19:58;22.13;;;10.57;;
73557;SDS011;61829;53.286;10.434;2022-10-18T06:22:24;20.90;;;10.77;;
73557;SDS011;61829;53.286;10.434;2022-10-18T06:24:50;18.73;;;10.52;;
73557;SDS011;61829;53.286;10.434;2022-10-18T06:27:16;24.00;;;12.15;;
73557;SDS011;61829;53.286;10.434;2022-10-18T06:29:42;20.88;;;11.90;;
73557;SDS011;61829;53.286;10.434;2022-10-18T06:32:08;24.23;;;11.18;;
73557;SDS011;61829;53.286;10.434;2022-10-18T06:34:34;20.42;;;11.57;;
73557;SDS011;61829;53.286;10.434;2022-10-18T06:37:00;23.35;;;11.45;;
73557;SDS011;61829;53.286;10.434;2022-10-18T06:39:26;21.73;;;11.20;;
73557;SDS011;61829;53.286;10.434;2022-10-18T06:41:52;24.25;;;11.88;;
73557;SDS011;61829;53.286;10.434;2022-10-18T06:44:19;20.58;;;10.45;;
73557;SDS011;61829;53.286;10.434;2022-10-18T06:46:46;22.98;;;11.45;;
73557;SDS011;61829;53.286;10.434;2022-10-18T06:49:13;22.90;;;11.98;;
73557;SDS011;61829;53.286;10.434;2022-10-18T06:51:40;26.10;;;12.02;;
73557;SDS011;61829;53.286;10.434;2022-10-18T06:54:07;23.52;;;11.60;;
73557;SDS011;61829;53.286;10.434;2022-10-18T06:56:35;25.55;;;11.85;;
73557;SDS011;61829;53.286;10.434;2022-10-18T06:59:01;24.80;;;11.75;;
73557;SDS011;61829;53.286;10.434;2022-10-18T07:01:27;19.60;;;11.32;;
73557;SDS011;61829;53.286;10.434;2022-10-18T07:03:54;23.95;;;11.70;;
73557;SDS011;61829;53.286;10.434;2022-10-18T07:06:21;29.02;;;12.63;;
73557;SDS011;61829;53.286;10.434;2022-10-18T07:08:49;20.90;;;10.80;;
73557;SDS011;61829;53.286;10.434;2022-10-18T07:11:20;24.55;;;12.50;;
73557;SDS011;61829;53.286;10.434;2022-10-18T07:13:53;24.60;;;12.18;;
73557;SDS011;61829;53.286;10.434;2022-10-18T07:16:26;24.58;;;11.73;;
73557;SDS011;61829;53.286;10.434;2022-10-18T07:18:52;25.88;;;13.05;;
73557;SDS011;61829;53.286;10.434;2022-10-18T07:21:19;28.42;;;13.68;;
73557;SDS011;61829;53.286;10.434;2022-10-18T07:23:47;31.40;;;14.65;;
73557;SDS011;61829;53.286;10.434;2022-10-18T07:26:14;28.70;;;14.48;;
73557;SDS011;61829;53.286;10.434;2022-10-18T07:28:46;26.23;;;11.95;;
73557;SDS011;61829;53.286;10.434;2022-10-18T07:31:13;26.00;;;13.70;;
73557;SDS011;61829;53.286;10.434;2022-10-18T07:33:40;26.63;;;13.52;;
73557;SDS011;61829;53.286;10.434;2022-10-18T07:36:08;30.17;;;12.63;;
73557;SDS011;61829;53.286;10.434;2022-10-18T07:38:35;25.48;;;12.48;;
73557;SDS011;61829;53.286;10.434;2022-10-18T07:41:02;24.63;;;12.13;;
73557;SDS011;61829;53.286;10.434;2022-10-18T07:43:34;29.27;;;13.63;;
73557;SDS011;61829;53.286;10.434;2022-10-18T07:46:00;22.17;;;10.98;;
73557;SDS011;61829;53.286;10.434;2022-10-18T07:48:28;27.15;;;11.88;;
73557;SDS011;61829;53.286;10.434;2022-10-18T07:50:56;21.95;;;11.50;;
73557;SDS011;61829;53.286;10.434;2022-10-18T07:53:23;24.02;;;11.88;;
73557;SDS011;61829;53.286;10.434;2022-10-18T07:55:50;21.73;;;12.00;;
73557;SDS011;61829;53.286;10.434;2022-10-18T07:58:16;23.77;;;11.35;;
73557;SDS011;61829;53.286;10.434;2022-10-18T08:00:42;27.35;;;11.52;;
73557;SDS011;61829;53.286;10.434;2022-10-18T08:03:11;26.92;;;12.30;;
73557;SDS011;61829;53.286;10.434;2022-10-18T08:05:37;21.40;;;10.90;;
73557;SDS011;61829;53.286;10.434;2022-10-18T08:08:02;23.45;;;11.23;;
73557;SDS011;61829;53.286;10.434;2022-10-18T08:10:28;23.40;;;11.57;;
73557;SDS011;61829;53.286;10.434;2022-10-18T08:12:54;24.05;;;11.32;;
73557;SDS011;61829;53.286;10.434;2022-10-18T08:15:20;22.92;;;11.05;;
73557;SDS011;61829;53.286;10.434;2022-10-18T08:17:49;23.30;;;10.25;;
73557;SDS011;61829;53.286;10.434;2022-10-18T08:20:15;26.60;;;11.30;;
73557;SDS011;61829;53.286;10.434;2022-10-18T08:22:41;24.23;;;11.35;;
73557;SDS011;61829;53.286;10.434;2022-10-18T08:25:07;21.77;;;10.30;;
73557;SDS011;61829;53.286;10.434;2022-10-18T08:27:33;23.50;;;10.57;;
73557;SDS011;61829;53.286;10.434;2022-10-18T08:29:59;22.15;;;10.80;;
73557;SDS011;61829;53.286;10.434;2022-10-18T08:32:27;24.48;;;11.73;;
73557;SDS011;61829;53.286;10.434;2022-10-18T08:34:54;22.27;;;10.90;;
73557;SDS011;61829;53.286;10.434;2022-10-18T08:37:20;25.30;;;11.35;;
73557;SDS011;61829;53.286;10.434;2022-10-18T08:39:45;21.40;;;10.88;;
73557;SDS011;61829;53.286;10.434;2022-10-18T08:44:58;20.73;;;9.85;;
73557;SDS011;61829;53.286;10.434;2022-10-18T08:47:34;23.85;;;11.00;;
73557;SDS011;61829;53.286;10.434;2022-10-18T08:50:05;22.25;;;10.07;;
73557;SDS011;61829;53.286;10.434;2022-10-18T08:53:00;21.70;;;9.93;;
73557;SDS011;61829;53.286;10.434;2022-10-18T08:58:14;19.63;;;10.02;;
73557;SDS011;61829;53.286;10.434;2022-10-18T09:21:07;20.67;;;8.73;;
73557;SDS011;61829;53.286;10.434;2022-10-18T09:24:10;15.30;;;7.35;;
73557;SDS011;61829;53.286;10.434;2022-10-18T09:26:44;21.63;;;8.48;;
73557;SDS011;61829;53.286;10.434;2022-10-18T09:32:02;18.00;;;8.00;;
73557;SDS011;61829;53.286;10.434;2022-10-18T09:37:08;19.70;;;9.00;;
73557;SDS011;61829;53.286;10.434;2022-10-18T09:39:38;18.55;;;7.88;;
73557;SDS011;61829;53.286;10.434;2022-10-18T09:42:10;19.67;;;8.65;;
73557;SDS011;61829;53.286;10.434;2022-10-18T09:44:46;19.02;;;8.25;;
73557;SDS011;61829;53.286;10.434;2022-10-18T09:47:19;17.80;;;8.13;;
73557;SDS011;61829;53.286;10.434;2022-10-18T09:49:55;17.35;;;7.47;;
73557;SDS011;61829;53.286;10.434;2022-10-18T09:52:36;22.20;;;8.88;;
73557;SDS011;61829;53.286;10.434;2022-10-18T09:55:14;17.63;;;8.02;;
73557;SDS011;61829;53.286;10.434;2022-10-18T09:57:47;21.13;;;8.32;;
73557;SDS011;61829;53.286;10.434;2022-10-18T10:00:38;17.13;;;7.95;;
73557;SDS011;61829;53.286;10.434;2022-10-18T10:03:11;19.33;;;8.20;;
73557;SDS011;61829;53.286;10.434;2022-10-18T10:05:39;23.27;;;8.38;;
73557;SDS011;61829;53.286;10.434;2022-10-18T10:08:05;16.33;;;6.93;;
73557;SDS011;61829;53.286;10.434;2022-10-18T10:10:31;20.40;;;7.97;;
73557;SDS011;61829;53.286;10.434;2022-10-18T10:15:59;18.98;;;7.28;;
73557;SDS011;61829;53.286;10.434;2022-10-18T10:18:30;12.98;;;6.32;;
73557;SDS011;61829;53.286;10.434;2022-10-18T10:21:02;19.60;;;7.10;;
73557;SDS011;61829;53.286;10.434;2022-10-18T10:23:32;15.45;;;7.10;;
73557;SDS011;61829;53.286;10.434;2022-10-18T10:26:17;16.10;;;6.57;;
73557;SDS011;61829;53.286;10.434;2022-10-18T10:28:49;18.00;;;6.43;;
73557;SDS011;61829;53.286;10.434;2022-10-18T10:31:17;12.75;;;5.75;;
73557;SDS011;61829;53.286;10.434;2022-10-18T10:33:56;18.15;;;5.32;;
73557;SDS011;61829;53.286;10.434;2022-10-18T10:36:23;12.77;;;5.30;;
73557;SDS011;61829;53.286;10.434;2022-10-18T10:41:30;11.82;;;4.22;;
73557;SDS011;61829;53.286;10.434;2022-10-18T10:43:57;13.02;;;4.18;;
73557;SDS011;61829;53.286;10.434;2022-10-18T10:46:31;12.80;;;4.82;;
73557;SDS011;61829;53.286;10.434;2022-10-18T10:48:59;11.93;;;4.15;;
73557;SDS011;61829;53.286;10.434;2022-10-18T10:51:28;13.10;;;3.72;;
73557;SDS011;61829;53.286;10.434;2022-10-18T10:54:04;10.23;;;3.83;;
73557;SDS011;61829;53.286;10.434;2022-10-18T10:56:59;9.15;;;3.50;;
73557;SDS011;61829;53.286;10.434;2022-10-18T10:59:40;8.38;;;3.33;;
73557;SDS011;61829;53.286;10.434;2022-10-18T11:04:46;6.60;;;2.75;;
73557;SDS011;61829;53.286;10.434;2022-10-18T11:12:42;6.50;;;2.67;;
73557;SDS011;61829;53.286;10.434;2022-10-18T11:18:27;7.85;;;2.65;;
73557;SDS011;61829;53.286;10.434;2022-10-18T11:23:32;6.32;;;2.25;;
73557;SDS011;61829;53.286;10.434;2022-10-18T11:26:07;10.23;;;2.22;;
73557;SDS011;61829;53.286;10.434;2022-10-18T11:40:13;5.97;;;1.38;;
73557;SDS011;61829;53.286;10.434;2022-10-18T11:48:48;6.47;;;1.52;;
73557;SDS011;61829;53.286;10.434;2022-10-18T12:05:17;6.45;;;1.60;;
73557;SDS011;61829;53.286;10.434;2022-10-18T12:07:47;6.07;;;1.80;;
73557;SDS011;61829;53.286;10.434;2022-10-18T12:10:31;6.93;;;1.75;;
73557;SDS011;61829;53.286;10.434;2022-10-18T12:12:58;7.75;;;2.08;;
73557;SDS011;61829;53.286;10.434;2022-10-18T12:15:28;7.40;;;1.90;;
73557;SDS011;61829;53.286;10.434;2022-10-18T12:18:06;4.63;;;1.70;;
73557;SDS011;61829;53.286;10.434;2022-10-18T12:20:44;5.65;;;1.92;;
73557;SDS011;61829;53.286;10.434;2022-10-18T12:25:50;6.13;;;2.00;;
73557;SDS011;61829;53.286;10.434;2022-10-18T12:31:03;8.52;;;1.95;;
73557;SDS011;61829;53.286;10.434;2022-10-18T12:33:35;6.75;;;2.00;;
73557;SDS011;61829;53.286;10.434;2022-10-18T12:39:00;7.28;;;2.13;;
73557;SDS011;61829;53.286;10.434;2022-10-18T12:41:30;5.22;;;2.10;;
73557;SDS011;61829;53.286;10.434;2022-10-18T12:44:17;5.45;;;2.00;;
73557;SDS011;61829;53.286;10.434;2022-10-18T12:46:52;8.00;;;2.13;;
73557;SDS011;61829;53.286;10.434;2022-10-18T12:49:41;5.88;;;1.67;;
73557;SDS011;61829;53.286;10.434;2022-10-18T12:52:18;3.75;;;1.38;;
73557;SDS011;61829;53.286;10.434;2022-10-18T13:05:53;7.65;;;1.80;;
73557;SDS011;61829;53.286;10.434;2022-10-18T13:16:07;7.72;;;1.52;;
73557;SDS011;61829;53.286;10.434;2022-10-18T13:18:58;7.88;;;1.60;;
73557;SDS011;61829;53.286;10.434;2022-10-18T13:31:59;6.28;;;1.70;;
73557;SDS011;61829;53.286;10.434;2022-10-18T13:34:39;8.43;;;1.58;;
73557;SDS011;61829;53.286;10.434;2022-10-18T13:39:36;8.10;;;2.00;;
73557;SDS011;61829;53.286;10.434;2022-10-18T13:44:39;5.28;;;1.75;;
73557;SDS011;61829;53.286;10.434;2022-10-18T14:03:21;8.88;;;1.45;;
73557;SDS011;61829;53.286;10.434;2022-10-18T14:06:09;5.65;;;1.50;;
73557;SDS011;61829;53.286;10.434;2022-10-18T14:14:43;5.20;;;1.55;;
73557;SDS011;61829;53.286;10.434;2022-10-18T14:17:21;3.50;;;1.27;;
73557;SDS011;61829;53.286;10.434;2022-10-18T14:23:04;7.55;;;1.67;;
73557;SDS011;61829;53.286;10.434;2022-10-18T14:25:37;4.75;;;1.90;;
73557;SDS011;61829;53.286;10.434;2022-10-18T14:30:55;3.67;;;1.30;;
73557;SDS011;61829;53.286;10.434;2022-10-18T14:36:41;5.25;;;1.70;;
73557;SDS011;61829;53.286;10.434;2022-10-18T14:46:46;6.03;;;1.70;;
73557;SDS011;61829;53.286;10.434;2022-10-18T14:49:16;5.65;;;1.83;;
73557;SDS011;61829;53.286;10.434;2022-10-18T14:51:44;8.75;;;1.88;;
73557;SDS011;61829;53.286;10.434;2022-10-18T14:54:14;7.15;;;1.67;;
73557;SDS011;61829;53.286;10.434;2022-10-18T14:56:43;8.77;;;1.75;;
73557;SDS011;61829;53.286;10.434;2022-10-18T14:59:20;8.48;;;1.50;;
73557;SDS011;61829;53.286;10.434;2022-10-18T15:01:56;7.25;;;1.80;;
73557;SDS011;61829;53.286;10.434;2022-10-18T15:04:25;9.35;;;1.70;;
73557;SDS011;61829;53.286;10.434;2022-10-18T15:07:00;6.60;;;1.88;;
73557;SDS011;61829;53.286;10.434;2022-10-18T15:09:30;5.82;;;1.38;;
73557;SDS011;61829;53.286;10.434;2022-10-18T15:11:59;6.55;;;1.60;;
73557;SDS011;61829;53.286;10.434;2022-10-18T15:14:27;10.05;;;1.90;;
73557;SDS011;61829;53.286;10.434;2022-10-18T15:16:58;7.10;;;1.55;;
73557;SDS011;61829;53.286;10.434;2022-10-18T15:19:32;8.43;;;1.70;;
73557;SDS011;61829;53.286;10.434;2022-10-18T15:22:05;5.85;;;1.58;;
73557;SDS011;61829;53.286;10.434;2022-10-18T15:29:34;6.72;;;1.30;;
73557;SDS011;61829;53.286;10.434;2022-10-18T15:32:06;7.25;;;2.00;;
73557;SDS011;61829;53.286;10.434;2022-10-18T15:34:39;5.95;;;1.20;;
73557;SDS011;61829;53.286;10.434;2022-10-18T15:37:16;5.88;;;1.60;;
73557;SDS011;61829;53.286;10.434;2022-10-18T15:42:42;6.65;;;1.60;;
73557;SDS011;61829;53.286;10.434;2022-10-18T15:45:32;9.35;;;1.55;;
73557;SDS011;61829;53.286;10.434;2022-10-18T15:50:37;8.70;;;1.40;;
73557;SDS011;61829;53.286;10.434;2022-10-18T15:58:41;5.50;;;1.35;;
73557;SDS011;61829;53.286;10.434;2022-10-18T16:01:16;7.70;;;1.27;;
73557;SDS011;61829;53.286;10.434;2022-10-18T16:03:44;8.30;;;1.50;;
73557;SDS011;61829;53.286;10.434;2022-10-18T16:06:12;7.78;;;1.40;;
73557;SDS011;61829;53.286;10.434;2022-10-18T16:08:40;6.10;;;2.20;;
73557;SDS011;61829;53.286;10.434;2022-10-18T16:11:11;4.60;;;1.45;;
73557;SDS011;61829;53.286;10.434;2022-10-18T16:13:40;8.35;;;1.48;;
73557;SDS011;61829;53.286;10.434;2022-10-18T16:16:09;9.45;;;1.50;;
73557;SDS011;61829;53.286;10.434;2022-10-18T16:18:40;6.60;;;1.30;;
73557;SDS011;61829;53.286;10.434;2022-10-18T16:21:11;8.90;;;1.98;;
73557;SDS011;61829;53.286;10.434;2022-10-18T16:23:42;9.13;;;2.50;;
73557;SDS011;61829;53.286;10.434;2022-10-18T16:26:09;8.55;;;2.17;;
73557;SDS011;61829;53.286;10.434;2022-10-18T16:28:36;6.22;;;1.77;;
73557;SDS011;61829;53.286;10.434;2022-10-18T16:31:02;6.47;;;1.75;;
73557;SDS011;61829;53.286;10.434;2022-10-18T16:33:28;10.27;;;1.63;;
73557;SDS011;61829;53.286;10.434;2022-10-18T16:38:26;7.88;;;1.48;;
73557;SDS011;61829;53.286;10.434;2022-10-18T16:40:55;5.15;;;1.30;;
73557;SDS011;61829;53.286;10.434;2022-10-18T16:43:22;7.72;;;1.50;;
73557;SDS011;61829;53.286;10.434;2022-10-18T16:45:49;4.43;;;1.30;;
73557;SDS011;61829;53.286;10.434;2022-10-18T16:48:18;6.82;;;1.50;;
73557;SDS011;61829;53.286;10.434;2022-10-18T16:50:47;5.85;;;1.40;;
73557;SDS011;61829;53.286;10.434;2022-10-18T16:53:13;5.57;;;1.45;;
73557;SDS011;61829;53.286;10.434;2022-10-18T16:55:40;8.10;;;1.80;;
73557;SDS011;61829;53.286;10.434;2022-10-18T16:58:12;8.63;;;1.67;;
73557;SDS011;61829;53.286;10.434;2022-10-18T17:00:42;7.13;;;1.35;;
73557;SDS011;61829;53.286;10.434;2022-10-18T17:03:09;8.75;;;1.45;;
73557;SDS011;61829;53.286;10.434;2022-10-18T17:05:35;7.50;;;1.45;;
73557;SDS011;61829;53.286;10.434;2022-10-18T17:08:01;6.07;;;1.70;;
73557;SDS011;61829;53.286;10.434;2022-10-18T17:10:27;6.57;;;1.45;;
73557;SDS011;61829;53.286;10.434;2022-10-18T17:12:53;6.40;;;1.50;;
73557;SDS011;61829;53.286;10.434;2022-10-18T17:15:20;10.18;;;2.05;;
73557;SDS011;61829;53.286;10.434;2022-10-18T17:17:46;9.60;;;2.05;;
73557;SDS011;61829;53.286;10.434;2022-10-18T17:20:18;8.27;;;2.10;;
73557;SDS011;61829;53.286;10.434;2022-10-18T17:25:14;7.57;;;1.70;;
73557;SDS011;61829;53.286;10.434;2022-10-18T17:27:41;5.78;;;1.65;;
73557;SDS011;61829;53.286;10.434;2022-10-18T17:32:34;4.93;;;1.60;;
73557;SDS011;61829;53.286;10.434;2022-10-18T17:34:59;8.05;;;1.77;;
73557;SDS011;61829;53.286;10.434;2022-10-18T17:37:25;7.30;;;1.60;;
73557;SDS011;61829;53.286;10.434;2022-10-18T17:39:51;6.60;;;1.50;;
73557;SDS011;61829;53.286;10.434;2022-10-18T17:42:17;7.45;;;1.33;;
73557;SDS011;61829;53.286;10.434;2022-10-18T17:44:45;9.90;;;1.65;;
73557;SDS011;61829;53.286;10.434;2022-10-18T17:47:11;7.18;;;1.90;;
73557;SDS011;61829;53.286;10.434;2022-10-18T17:49:38;6.47;;;1.80;;
73557;SDS011;61829;53.286;10.434;2022-10-18T17:52:04;8.10;;;2.08;;
73557;SDS011;61829;53.286;10.434;2022-10-18T17:54:30;7.80;;;2.00;;
73557;SDS011;61829;53.286;10.434;2022-10-18T17:56:56;8.30;;;1.80;;
73557;SDS011;61829;53.286;10.434;2022-10-18T17:59:22;7.68;;;1.88;;
73557;SDS011;61829;53.286;10.434;2022-10-18T18:01:50;6.05;;;1.67;;
73557;SDS011;61829;53.286;10.434;2022-10-18T18:04:17;9.10;;;2.15;;
73557;SDS011;61829;53.286;10.434;2022-10-18T18:06:43;9.32;;;1.95;;